Thiensville, Wisconsin
Current Conditions -  °F | °C
As of 11:45 AM on Wednesday 26 Nov 2014 (Local Time) from KMWC Reporting Station
Scattered Clouds Scattered Clouds  
Wind Chill: 28°   Ceiling: Unl
Heat Index: 28°   Visibility: 10mi
Dew Point: 19°   Wind: 0mph
Humidity: 69%   Direction: NA
Pressure: 30.13"   Gusts: NA
Location:  43.24°N, 87.98°W
Report Text: KMWC 261745Z AUTO 00000KT 10SM SCT025 M02/M07 A3013
Loading
Personal Weather Stations






























Interactive Weather Map New forecast layout! Learn more

10-Day Weather Forecast

Advertisements
Track Severe Weather on mobile